sensor_id;sensor_type;location;lat;lon;timestamp;temperature;humidity
60727;DHT22;46577;49.004;12.120;2023-03-14T00:00:13;10.90;99.90
60727;DHT22;46577;49.004;12.120;2023-03-14T00:02:39;10.80;99.90
60727;DHT22;46577;49.004;12.120;2023-03-14T00:05:05;10.80;99.90
60727;DHT22;46577;49.004;12.120;2023-03-14T00:07:35;10.70;99.90
60727;DHT22;46577;49.004;12.120;2023-03-14T00:10:09;10.80;99.90
60727;DHT22;46577;49.004;12.120;2023-03-14T00:12:35;10.80;99.90
60727;DHT22;46577;49.004;12.120;2023-03-14T00:15:00;10.80;99.90
60727;DHT22;46577;49.004;12.120;2023-03-14T00:17:29;10.80;99.90
60727;DHT22;46577;49.004;12.120;2023-03-14T00:19:54;10.80;99.90
60727;DHT22;46577;49.004;12.120;2023-03-14T00:22:21;10.90;99.90
60727;DHT22;46577;49.004;12.120;2023-03-14T00:24:47;10.90;99.90
60727;DHT22;46577;49.004;12.120;2023-03-14T00:27:13;10.90;99.90
60727;DHT22;46577;49.004;12.120;2023-03-14T00:29:39;10.90;99.90
60727;DHT22;46577;49.004;12.120;2023-03-14T00:32:04;10.90;99.90
60727;DHT22;46577;49.004;12.120;2023-03-14T00:34:31;10.80;99.90
60727;DHT22;46577;49.004;12.120;2023-03-14T00:36:57;10.80;99.90
60727;DHT22;46577;49.004;12.120;2023-03-14T00:39:22;10.70;99.90
60727;DHT22;46577;49.004;12.120;2023-03-14T00:41:48;10.80;99.90
60727;DHT22;46577;49.004;12.120;2023-03-14T00:44:13;10.90;99.90
60727;DHT22;46577;49.004;12.120;2023-03-14T00:46:39;10.80;99.90
60727;DHT22;46577;49.004;12.120;2023-03-14T00:49:05;10.80;99.90
60727;DHT22;46577;49.004;12.120;2023-03-14T00:51:30;10.80;99.90
60727;DHT22;46577;49.004;12.120;2023-03-14T00:53:56;10.80;99.90
60727;DHT22;46577;49.004;12.120;2023-03-14T00:56:21;10.90;99.90
60727;DHT22;46577;49.004;12.120;2023-03-14T00:58:47;10.90;99.90
60727;DHT22;46577;49.004;12.120;2023-03-14T01:01:18;11.00;99.90
60727;DHT22;46577;49.004;12.120;2023-03-14T01:03:44;11.00;99.90
60727;DHT22;46577;49.004;12.120;2023-03-14T01:06:19;11.00;99.90
60727;DHT22;46577;49.004;12.120;2023-03-14T01:08:45;11.00;99.90
60727;DHT22;46577;49.004;12.120;2023-03-14T01:11:14;11.00;99.90
60727;DHT22;46577;49.004;12.120;2023-03-14T01:13:40;11.10;99.90
60727;DHT22;46577;49.004;12.120;2023-03-14T01:16:08;10.90;99.90
60727;DHT22;46577;49.004;12.120;2023-03-14T01:18:34;10.90;99.90
60727;DHT22;46577;49.004;12.120;2023-03-14T01:21:01;10.80;99.90
60727;DHT22;46577;49.004;12.120;2023-03-14T01:23:27;10.80;99.90
60727;DHT22;46577;49.004;12.120;2023-03-14T01:25:52;10.80;99.90
60727;DHT22;46577;49.004;12.120;2023-03-14T01:28:18;10.70;99.90
60727;DHT22;46577;49.004;12.120;2023-03-14T01:30:43;10.60;99.90
60727;DHT22;46577;49.004;12.120;2023-03-14T01:33:09;10.70;99.90
60727;DHT22;46577;49.004;12.120;2023-03-14T01:35:35;10.80;99.90
60727;DHT22;46577;49.004;12.120;2023-03-14T01:38:00;10.70;99.90
60727;DHT22;46577;49.004;12.120;2023-03-14T01:40:26;10.70;99.90
60727;DHT22;46577;49.004;12.120;2023-03-14T01:42:56;10.80;99.90
60727;DHT22;46577;49.004;12.120;2023-03-14T01:48:28;12.50;99.90
60727;DHT22;46577;49.004;12.120;2023-03-14T01:50:56;10.50;99.90
60727;DHT22;46577;49.004;12.120;2023-03-14T01:53:22;10.50;99.90
60727;DHT22;46577;49.004;12.120;2023-03-14T01:55:49;10.50;99.90
60727;DHT22;46577;49.004;12.120;2023-03-14T01:58:16;10.40;99.90
60727;DHT22;46577;49.004;12.120;2023-03-14T02:00:43;10.40;99.90
60727;DHT22;46577;49.004;12.120;2023-03-14T02:03:15;10.40;99.90
60727;DHT22;46577;49.004;12.120;2023-03-14T02:05:42;10.40;99.90
60727;DHT22;46577;49.004;12.120;2023-03-14T02:08:14;10.40;99.90
60727;DHT22;46577;49.004;12.120;2023-03-14T02:10:43;10.40;99.90
60727;DHT22;46577;49.004;12.120;2023-03-14T02:13:10;10.30;99.90
60727;DHT22;46577;49.004;12.120;2023-03-14T02:15:37;10.40;99.90
60727;DHT22;46577;49.004;12.120;2023-03-14T02:18:04;10.40;99.90
60727;DHT22;46577;49.004;12.120;2023-03-14T02:23:33;10.30;99.90
60727;DHT22;46577;49.004;12.120;2023-03-14T02:26:14;10.30;99.90
60727;DHT22;46577;49.004;12.120;2023-03-14T02:28:41;10.30;99.90
60727;DHT22;46577;49.004;12.120;2023-03-14T02:31:08;10.30;99.90
60727;DHT22;46577;49.004;12.120;2023-03-14T02:33:35;10.10;99.90
60727;DHT22;46577;49.004;12.120;2023-03-14T02:36:05;10.10;99.90
60727;DHT22;46577;49.004;12.120;2023-03-14T02:38:58;10.00;99.90
60727;DHT22;46577;49.004;12.120;2023-03-14T02:41:26;10.00;99.90
60727;DHT22;46577;49.004;12.120;2023-03-14T02:43:51;9.80;99.90
60727;DHT22;46577;49.004;12.120;2023-03-14T02:46:19;9.70;99.90
60727;DHT22;46577;49.004;12.120;2023-03-14T02:48:51;9.80;99.90
60727;DHT22;46577;49.004;12.120;2023-03-14T02:51:20;9.80;99.90
60727;DHT22;46577;49.004;12.120;2023-03-14T02:53:45;9.70;99.90
60727;DHT22;46577;49.004;12.120;2023-03-14T02:56:11;9.70;99.90
60727;DHT22;46577;49.004;12.120;2023-03-14T02:58:37;9.60;99.90
60727;DHT22;46577;49.004;12.120;2023-03-14T03:01:03;9.70;99.90
60727;DHT22;46577;49.004;12.120;2023-03-14T03:03:29;9.60;99.90
60727;DHT22;46577;49.004;12.120;2023-03-14T03:05:56;9.60;99.90
60727;DHT22;46577;49.004;12.120;2023-03-14T03:08:24;9.60;99.90
60727;DHT22;46577;49.004;12.120;2023-03-14T03:10:50;9.50;99.90
60727;DHT22;46577;49.004;12.120;2023-03-14T03:13:16;9.50;99.90
60727;DHT22;46577;49.004;12.120;2023-03-14T03:15:42;9.50;99.90
60727;DHT22;46577;49.004;12.120;2023-03-14T03:18:08;9.50;99.90
60727;DHT22;46577;49.004;12.120;2023-03-14T03:20:33;9.50;99.90
60727;DHT22;46577;49.004;12.120;2023-03-14T03:22:59;9.50;99.90
60727;DHT22;46577;49.004;12.120;2023-03-14T03:25:25;9.60;99.90
60727;DHT22;46577;49.004;12.120;2023-03-14T03:27:51;9.60;99.90
60727;DHT22;46577;49.004;12.120;2023-03-14T03:30:17;9.60;99.90
60727;DHT22;46577;49.004;12.120;2023-03-14T03:32:43;9.70;99.90
60727;DHT22;46577;49.004;12.120;2023-03-14T03:35:09;9.60;99.90
60727;DHT22;46577;49.004;12.120;2023-03-14T03:37:35;9.60;99.90
60727;DHT22;46577;49.004;12.120;2023-03-14T03:40:01;9.60;99.90
60727;DHT22;46577;49.004;12.120;2023-03-14T03:42:29;9.70;99.90
60727;DHT22;46577;49.004;12.120;2023-03-14T03:44:55;9.70;99.90
60727;DHT22;46577;49.004;12.120;2023-03-14T03:47:20;9.80;99.90
60727;DHT22;46577;49.004;12.120;2023-03-14T03:49:46;9.90;99.90
60727;DHT22;46577;49.004;12.120;2023-03-14T03:52:12;9.90;99.90
60727;DHT22;46577;49.004;12.120;2023-03-14T03:54:37;9.80;99.90
60727;DHT22;46577;49.004;12.120;2023-03-14T03:57:03;9.70;99.90
60727;DHT22;46577;49.004;12.120;2023-03-14T03:59:28;9.80;99.90
60727;DHT22;46577;49.004;12.120;2023-03-14T04:01:54;9.80;99.90
60727;DHT22;46577;49.004;12.120;2023-03-14T04:04:19;9.80;99.90
60727;DHT22;46577;49.004;12.120;2023-03-14T04:06:45;9.90;99.90
60727;DHT22;46577;49.004;12.120;2023-03-14T04:09:11;9.80;99.90
60727;DHT22;46577;49.004;12.120;2023-03-14T04:11:37;9.90;99.90
60727;DHT22;46577;49.004;12.120;2023-03-14T04:14:03;9.80;99.90
60727;DHT22;46577;49.004;12.120;2023-03-14T04:16:29;9.90;99.90
60727;DHT22;46577;49.004;12.120;2023-03-14T04:18:57;9.80;99.90
60727;DHT22;46577;49.004;12.120;2023-03-14T04:21:22;9.80;99.90
60727;DHT22;46577;49.004;12.120;2023-03-14T04:23:48;9.80;99.90
60727;DHT22;46577;49.004;12.120;2023-03-14T04:26:13;9.70;99.90
60727;DHT22;46577;49.004;12.120;2023-03-14T04:28:39;9.70;99.90
60727;DHT22;46577;49.004;12.120;2023-03-14T04:31:17;9.70;99.90
60727;DHT22;46577;49.004;12.120;2023-03-14T04:33:44;9.70;99.90
60727;DHT22;46577;49.004;12.120;2023-03-14T04:36:09;9.70;99.90
60727;DHT22;46577;49.004;12.120;2023-03-14T04:38:35;9.70;99.90
60727;DHT22;46577;49.004;12.120;2023-03-14T04:41:01;9.70;99.90
60727;DHT22;46577;49.004;12.120;2023-03-14T04:43:27;9.70;99.90
60727;DHT22;46577;49.004;12.120;2023-03-14T04:45:57;9.80;99.90
60727;DHT22;46577;49.004;12.120;2023-03-14T04:48:24;9.80;99.90
60727;DHT22;46577;49.004;12.120;2023-03-14T04:50:50;9.70;99.90
60727;DHT22;46577;49.004;12.120;2023-03-14T04:53:17;9.70;99.90
60727;DHT22;46577;49.004;12.120;2023-03-14T04:55:46;9.70;99.90
60727;DHT22;46577;49.004;12.120;2023-03-14T04:58:12;9.70;99.90
60727;DHT22;46577;49.004;12.120;2023-03-14T05:00:38;9.70;99.90
60727;DHT22;46577;49.004;12.120;2023-03-14T05:03:03;9.70;99.90
60727;DHT22;46577;49.004;12.120;2023-03-14T05:05:29;9.80;99.90
60727;DHT22;46577;49.004;12.120;2023-03-14T05:07:54;9.70;99.90
60727;DHT22;46577;49.004;12.120;2023-03-14T05:10:20;9.70;99.90
60727;DHT22;46577;49.004;12.120;2023-03-14T05:12:46;9.70;99.90
60727;DHT22;46577;49.004;12.120;2023-03-14T05:15:11;9.60;99.90
60727;DHT22;46577;49.004;12.120;2023-03-14T05:17:37;9.50;99.90
60727;DHT22;46577;49.004;12.120;2023-03-14T05:20:03;9.50;99.90
60727;DHT22;46577;49.004;12.120;2023-03-14T05:22:34;9.50;99.90
60727;DHT22;46577;49.004;12.120;2023-03-14T05:25:00;9.60;99.90
60727;DHT22;46577;49.004;12.120;2023-03-14T05:27:25;9.50;99.90
60727;DHT22;46577;49.004;12.120;2023-03-14T05:29:51;9.40;99.90
60727;DHT22;46577;49.004;12.120;2023-03-14T05:32:16;9.30;99.90
60727;DHT22;46577;49.004;12.120;2023-03-14T05:34:42;9.40;99.90
60727;DHT22;46577;49.004;12.120;2023-03-14T05:37:07;9.30;99.90
60727;DHT22;46577;49.004;12.120;2023-03-14T05:39:33;9.30;99.90
60727;DHT22;46577;49.004;12.120;2023-03-14T05:41:58;9.30;99.90
60727;DHT22;46577;49.004;12.120;2023-03-14T05:44:24;9.30;99.90
60727;DHT22;46577;49.004;12.120;2023-03-14T05:46:50;9.30;99.90
60727;DHT22;46577;49.004;12.120;2023-03-14T05:49:15;9.30;99.90
60727;DHT22;46577;49.004;12.120;2023-03-14T05:51:41;9.30;99.90
60727;DHT22;46577;49.004;12.120;2023-03-14T05:54:07;9.30;99.90
60727;DHT22;46577;49.004;12.120;2023-03-14T05:56:32;9.30;99.90
60727;DHT22;46577;49.004;12.120;2023-03-14T06:01:27;9.40;99.90
60727;DHT22;46577;49.004;12.120;2023-03-14T06:03:52;9.40;99.90
60727;DHT22;46577;49.004;12.120;2023-03-14T06:06:18;9.50;99.90
60727;DHT22;46577;49.004;12.120;2023-03-14T06:08:43;9.50;99.90
60727;DHT22;46577;49.004;12.120;2023-03-14T06:11:09;9.60;99.90
60727;DHT22;46577;49.004;12.120;2023-03-14T06:13:35;9.70;99.90
60727;DHT22;46577;49.004;12.120;2023-03-14T06:16:00;9.90;99.90
60727;DHT22;46577;49.004;12.120;2023-03-14T06:18:26;9.90;99.90
60727;DHT22;46577;49.004;12.120;2023-03-14T06:20:55;9.70;99.90
60727;DHT22;46577;49.004;12.120;2023-03-14T06:23:21;9.80;99.90
60727;DHT22;46577;49.004;12.120;2023-03-14T06:25:47;9.70;99.90
60727;DHT22;46577;49.004;12.120;2023-03-14T06:28:13;9.70;99.90
60727;DHT22;46577;49.004;12.120;2023-03-14T06:30:38;9.80;99.90
60727;DHT22;46577;49.004;12.120;2023-03-14T06:33:04;9.80;99.90
60727;DHT22;46577;49.004;12.120;2023-03-14T06:35:29;9.80;99.90
60727;DHT22;46577;49.004;12.120;2023-03-14T06:37:55;9.80;99.90
60727;DHT22;46577;49.004;12.120;2023-03-14T06:40:21;9.80;99.90
60727;DHT22;46577;49.004;12.120;2023-03-14T06:42:47;9.90;99.90
60727;DHT22;46577;49.004;12.120;2023-03-14T06:45:13;9.90;99.90
60727;DHT22;46577;49.004;12.120;2023-03-14T06:47:39;9.90;99.90
60727;DHT22;46577;49.004;12.120;2023-03-14T06:50:09;9.90;99.90
60727;DHT22;46577;49.004;12.120;2023-03-14T06:52:35;9.90;99.90
60727;DHT22;46577;49.004;12.120;2023-03-14T06:55:00;9.90;99.90
60727;DHT22;46577;49.004;12.120;2023-03-14T06:57:26;10.00;99.90
60727;DHT22;46577;49.004;12.120;2023-03-14T06:59:51;9.90;99.90
60727;DHT22;46577;49.004;12.120;2023-03-14T07:02:17;10.20;99.90
60727;DHT22;46577;49.004;12.120;2023-03-14T07:04:43;10.10;99.90
60727;DHT22;46577;49.004;12.120;2023-03-14T07:07:08;10.10;99.90
60727;DHT22;46577;49.004;12.120;2023-03-14T07:09:35;10.10;99.90
60727;DHT22;46577;49.004;12.120;2023-03-14T07:12:00;10.20;99.90
60727;DHT22;46577;49.004;12.120;2023-03-14T07:14:26;10.10;99.90
60727;DHT22;46577;49.004;12.120;2023-03-14T07:16:52;10.10;99.90
60727;DHT22;46577;49.004;12.120;2023-03-14T07:19:17;10.10;99.90
60727;DHT22;46577;49.004;12.120;2023-03-14T07:21:43;10.00;99.90
60727;DHT22;46577;49.004;12.120;2023-03-14T07:24:09;10.20;99.90
60727;DHT22;46577;49.004;12.120;2023-03-14T07:26:35;10.20;99.90
60727;DHT22;46577;49.004;12.120;2023-03-14T07:29:00;10.50;99.90
60727;DHT22;46577;49.004;12.120;2023-03-14T07:31:28;10.50;99.90
60727;DHT22;46577;49.004;12.120;2023-03-14T07:33:54;10.60;99.90
60727;DHT22;46577;49.004;12.120;2023-03-14T07:36:20;9.20;99.90
60727;DHT22;46577;49.004;12.120;2023-03-14T07:38:45;10.90;99.90
60727;DHT22;46577;49.004;12.120;2023-03-14T07:41:11;11.00;99.90
60727;DHT22;46577;49.004;12.120;2023-03-14T07:43:36;10.70;99.90
60727;DHT22;46577;49.004;12.120;2023-03-14T07:46:02;10.80;99.90
60727;DHT22;46577;49.004;12.120;2023-03-14T07:48:28;10.70;99.90
60727;DHT22;46577;49.004;12.120;2023-03-14T07:50:54;10.60;99.90
60727;DHT22;46577;49.004;12.120;2023-03-14T07:53:21;10.60;99.90
60727;DHT22;46577;49.004;12.120;2023-03-14T07:55:47;10.60;99.90
60727;DHT22;46577;49.004;12.120;2023-03-14T07:58:13;10.50;99.90
60727;DHT22;46577;49.004;12.120;2023-03-14T08:00:39;10.50;99.90
60727;DHT22;46577;49.004;12.120;2023-03-14T08:03:13;10.60;99.90
60727;DHT22;46577;49.004;12.120;2023-03-14T08:05:39;13.40;99.90
60727;DHT22;46577;49.004;12.120;2023-03-14T08:08:05;10.80;99.90
60727;DHT22;46577;49.004;12.120;2023-03-14T08:10:32;10.80;99.90
60727;DHT22;46577;49.004;12.120;2023-03-14T08:12:59;10.70;99.90
60727;DHT22;46577;49.004;12.120;2023-03-14T08:15:27;10.80;99.90
60727;DHT22;46577;49.004;12.120;2023-03-14T08:17:53;10.80;99.90
60727;DHT22;46577;49.004;12.120;2023-03-14T08:20:20;10.90;99.90
60727;DHT22;46577;49.004;12.120;2023-03-14T08:22:46;11.10;99.90
60727;DHT22;46577;49.004;12.120;2023-03-14T08:25:12;11.40;99.90
60727;DHT22;46577;49.004;12.120;2023-03-14T08:27:37;11.50;99.90
60727;DHT22;46577;49.004;12.120;2023-03-14T08:30:05;11.60;99.90
60727;DHT22;46577;49.004;12.120;2023-03-14T08:32:31;11.60;99.90
60727;DHT22;46577;49.004;12.120;2023-03-14T08:34:57;11.60;99.90
60727;DHT22;46577;49.004;12.120;2023-03-14T08:37:23;11.70;99.90
60727;DHT22;46577;49.004;12.120;2023-03-14T08:39:50;11.70;99.90
60727;DHT22;46577;49.004;12.120;2023-03-14T08:42:16;11.70;99.90
60727;DHT22;46577;49.004;12.120;2023-03-14T08:44:42;11.90;99.90
60727;DHT22;46577;49.004;12.120;2023-03-14T08:47:08;11.90;99.90
60727;DHT22;46577;49.004;12.120;2023-03-14T08:49:33;12.10;99.90
60727;DHT22;46577;49.004;12.120;2023-03-14T08:52:00;12.30;99.90
60727;DHT22;46577;49.004;12.120;2023-03-14T08:54:26;12.40;99.90
60727;DHT22;46577;49.004;12.120;2023-03-14T08:56:52;12.40;99.90
60727;DHT22;46577;49.004;12.120;2023-03-14T08:59:17;12.70;99.90
60727;DHT22;46577;49.004;12.120;2023-03-14T09:01:43;12.90;99.90
60727;DHT22;46577;49.004;12.120;2023-03-14T09:04:09;12.90;99.90
60727;DHT22;46577;49.004;12.120;2023-03-14T09:06:35;13.00;99.90
60727;DHT22;46577;49.004;12.120;2023-03-14T09:09:01;13.20;99.90
60727;DHT22;46577;49.004;12.120;2023-03-14T09:11:27;13.10;99.90
60727;DHT22;46577;49.004;12.120;2023-03-14T09:13:53;13.20;99.90
60727;DHT22;46577;49.004;12.120;2023-03-14T09:16:18;13.20;99.90
60727;DHT22;46577;49.004;12.120;2023-03-14T09:18:44;13.20;99.90
60727;DHT22;46577;49.004;12.120;2023-03-14T09:21:10;13.20;99.90
60727;DHT22;46577;49.004;12.120;2023-03-14T09:23:36;13.50;99.90
60727;DHT22;46577;49.004;12.120;2023-03-14T09:26:01;13.70;99.90
60727;DHT22;46577;49.004;12.120;2023-03-14T09:28:27;14.10;99.90
60727;DHT22;46577;49.004;12.120;2023-03-14T09:30:53;13.90;99.90
60727;DHT22;46577;49.004;12.120;2023-03-14T09:33:20;14.40;99.90
60727;DHT22;46577;49.004;12.120;2023-03-14T09:35:45;14.60;99.90
60727;DHT22;46577;49.004;12.120;2023-03-14T09:38:11;14.30;99.90
60727;DHT22;46577;49.004;12.120;2023-03-14T09:40:38;14.60;99.90
60727;DHT22;46577;49.004;12.120;2023-03-14T09:43:04;14.50;99.90
60727;DHT22;46577;49.004;12.120;2023-03-14T09:45:36;14.40;99.60
60727;DHT22;46577;49.004;12.120;2023-03-14T09:48:03;14.40;99.60
60727;DHT22;46577;49.004;12.120;2023-03-14T09:50:39;14.70;98.90
60727;DHT22;46577;49.004;12.120;2023-03-14T09:53:11;15.00;98.70
60727;DHT22;46577;49.004;12.120;2023-03-14T09:55:38;15.00;98.40
60727;DHT22;46577;49.004;12.120;2023-03-14T09:58:10;14.60;98.30
60727;DHT22;46577;49.004;12.120;2023-03-14T10:00:37;14.60;98.70
60727;DHT22;46577;49.004;12.120;2023-03-14T10:05:37;15.50;97.30
60727;DHT22;46577;49.004;12.120;2023-03-14T10:08:03;15.80;96.70
60727;DHT22;46577;49.004;12.120;2023-03-14T10:10:28;15.80;95.30
60727;DHT22;46577;49.004;12.120;2023-03-14T10:12:59;15.90;95.20
60727;DHT22;46577;49.004;12.120;2023-03-14T10:15:33;16.60;94.40
60727;DHT22;46577;49.004;12.120;2023-03-14T10:18:01;17.90;91.10
60727;DHT22;46577;49.004;12.120;2023-03-14T10:20:28;19.90;90.70
60727;DHT22;46577;49.004;12.120;2023-03-14T10:25:44;17.90;88.20
60727;DHT22;46577;49.004;12.120;2023-03-14T10:28:24;19.10;81.70
60727;DHT22;46577;49.004;12.120;2023-03-14T10:30:50;20.60;74.40
60727;DHT22;46577;49.004;12.120;2023-03-14T10:35:59;22.80;61.50
60727;DHT22;46577;49.004;12.120;2023-03-14T10:38:28;23.80;53.30
60727;DHT22;46577;49.004;12.120;2023-03-14T10:40:54;23.40;52.40
60727;DHT22;46577;49.004;12.120;2023-03-14T10:43:26;23.30;50.70
60727;DHT22;46577;49.004;12.120;2023-03-14T10:46:19;21.70;54.20
60727;DHT22;46577;49.004;12.120;2023-03-14T10:48:44;21.40;56.70
60727;DHT22;46577;49.004;12.120;2023-03-14T10:53:56;21.50;54.80
60727;DHT22;46577;49.004;12.120;2023-03-14T10:56:24;20.10;57.10
60727;DHT22;46577;49.004;12.120;2023-03-14T10:58:53;19.00;59.60
60727;DHT22;46577;49.004;12.120;2023-03-14T11:09:31;18.10;63.60
60727;DHT22;46577;49.004;12.120;2023-03-14T11:12:29;17.60;64.30
60727;DHT22;46577;49.004;12.120;2023-03-14T11:14:54;17.00;66.70
60727;DHT22;46577;49.004;12.120;2023-03-14T11:17:30;16.30;68.60
60727;DHT22;46577;49.004;12.120;2023-03-14T11:22:49;15.30;74.50
60727;DHT22;46577;49.004;12.120;2023-03-14T11:26:09;14.80;77.00
60727;DHT22;46577;49.004;12.120;2023-03-14T11:28:36;14.50;79.10
60727;DHT22;46577;49.004;12.120;2023-03-14T11:31:27;14.30;82.10
60727;DHT22;46577;49.004;12.120;2023-03-14T11:34:01;14.10;83.70
60727;DHT22;46577;49.004;12.120;2023-03-14T11:36:33;13.70;86.60
60727;DHT22;46577;49.004;12.120;2023-03-14T11:39:02;13.60;88.40
60727;DHT22;46577;49.004;12.120;2023-03-14T11:41:36;13.70;89.90
60727;DHT22;46577;49.004;12.120;2023-03-14T11:44:12;13.70;90.30
60727;DHT22;46577;49.004;12.120;2023-03-14T11:49:47;13.80;91.30
60727;DHT22;46577;49.004;12.120;2023-03-14T11:54:52;14.20;91.70
60727;DHT22;46577;49.004;12.120;2023-03-14T11:57:20;14.60;90.70
60727;DHT22;46577;49.004;12.120;2023-03-14T12:00:16;14.70;90.70
60727;DHT22;46577;49.004;12.120;2023-03-14T12:10:29;18.50;79.30
60727;DHT22;46577;49.004;12.120;2023-03-14T12:12:55;21.70;67.20
60727;DHT22;46577;49.004;12.120;2023-03-14T12:15:23;24.20;55.20
60727;DHT22;46577;49.004;12.120;2023-03-14T12:17:54;25.80;48.20
60727;DHT22;46577;49.004;12.120;2023-03-14T12:20:23;24.50;46.80
60727;DHT22;46577;49.004;12.120;2023-03-14T12:23:02;22.80;49.30
60727;DHT22;46577;49.004;12.120;2023-03-14T12:25:30;21.30;51.30
60727;DHT22;46577;49.004;12.120;2023-03-14T12:30:29;18.90;57.50
60727;DHT22;46577;49.004;12.120;2023-03-14T12:35:49;17.50;62.60
60727;DHT22;46577;49.004;12.120;2023-03-14T12:41:34;16.60;66.30
60727;DHT22;46577;49.004;12.120;2023-03-14T12:44:39;15.70;69.60
60727;DHT22;46577;49.004;12.120;2023-03-14T12:49:53;14.70;76.40
60727;DHT22;46577;49.004;12.120;2023-03-14T13:00:29;14.90;83.30
60727;DHT22;46577;49.004;12.120;2023-03-14T13:03:02;14.90;85.50
60727;DHT22;46577;49.004;12.120;2023-03-14T13:05:52;14.90;86.00
60727;DHT22;46577;49.004;12.120;2023-03-14T13:11:01;14.60;85.90
60727;DHT22;46577;49.004;12.120;2023-03-14T13:13:28;14.50;85.00
60727;DHT22;46577;49.004;12.120;2023-03-14T13:15:56;14.40;85.40
60727;DHT22;46577;49.004;12.120;2023-03-14T13:18:36;14.30;86.20
60727;DHT22;46577;49.004;12.120;2023-03-14T13:24:02;14.40;86.50
60727;DHT22;46577;49.004;12.120;2023-03-14T13:26:40;14.20;91.00
60727;DHT22;46577;49.004;12.120;2023-03-14T13:29:18;13.80;94.70
60727;DHT22;46577;49.004;12.120;2023-03-14T13:31:52;13.60;98.10
60727;DHT22;46577;49.004;12.120;2023-03-14T13:34:18;13.50;99.90
60727;DHT22;46577;49.004;12.120;2023-03-14T13:36:44;13.40;99.90
60727;DHT22;46577;49.004;12.120;2023-03-14T13:39:17;13.50;99.90
60727;DHT22;46577;49.004;12.120;2023-03-14T13:41:43;13.70;99.90
60727;DHT22;46577;49.004;12.120;2023-03-14T13:44:17;14.00;99.90
60727;DHT22;46577;49.004;12.120;2023-03-14T13:46:45;14.40;99.90
60727;DHT22;46577;49.004;12.120;2023-03-14T13:49:16;14.50;99.90
60727;DHT22;46577;49.004;12.120;2023-03-14T13:51:45;14.70;99.90
60727;DHT22;46577;49.004;12.120;2023-03-14T13:54:16;14.70;99.60
60727;DHT22;46577;49.004;12.120;2023-03-14T13:56:42;14.80;99.80
60727;DHT22;46577;49.004;12.120;2023-03-14T13:59:25;14.90;99.80
60727;DHT22;46577;49.004;12.120;2023-03-14T14:01:55;14.70;99.40
60727;DHT22;46577;49.004;12.120;2023-03-14T14:04:24;14.60;99.90
60727;DHT22;46577;49.004;12.120;2023-03-14T14:06:57;13.90;99.60
60727;DHT22;46577;49.004;12.120;2023-03-14T14:12:05;13.00;99.90
60727;DHT22;46577;49.004;12.120;2023-03-14T14:14:43;12.70;99.90
60727;DHT22;46577;49.004;12.120;2023-03-14T14:17:12;9.30;99.90
60727;DHT22;46577;49.004;12.120;2023-03-14T14:19:41;11.70;99.90
60727;DHT22;46577;49.004;12.120;2023-03-14T14:22:08;11.50;99.90
60727;DHT22;46577;49.004;12.120;2023-03-14T14:24:36;11.40;99.90
60727;DHT22;46577;49.004;12.120;2023-03-14T14:27:12;11.30;99.90
60727;DHT22;46577;49.004;12.120;2023-03-14T14:29:38;11.30;99.90
60727;DHT22;46577;49.004;12.120;2023-03-14T14:35:06;11.20;99.90
60727;DHT22;46577;49.004;12.120;2023-03-14T14:37:34;11.30;99.90
60727;DHT22;46577;49.004;12.120;2023-03-14T14:40:09;11.20;99.90
60727;DHT22;46577;49.004;12.120;2023-03-14T14:42:39;11.10;99.90
60727;DHT22;46577;49.004;12.120;2023-03-14T14:45:09;11.10;99.90
60727;DHT22;46577;49.004;12.120;2023-03-14T14:50:33;11.40;99.90
60727;DHT22;46577;49.004;12.120;2023-03-14T14:53:27;11.40;99.90
60727;DHT22;46577;49.004;12.120;2023-03-14T14:55:57;11.30;99.90
60727;DHT22;46577;49.004;12.120;2023-03-14T14:58:26;11.30;99.90
60727;DHT22;46577;49.004;12.120;2023-03-14T15:01:18;11.30;99.90
60727;DHT22;46577;49.004;12.120;2023-03-14T15:03:44;11.20;99.90
60727;DHT22;46577;49.004;12.120;2023-03-14T15:06:12;10.90;99.90
60727;DHT22;46577;49.004;12.120;2023-03-14T15:08:38;10.90;99.90
60727;DHT22;46577;49.004;12.120;2023-03-14T15:11:04;10.90;99.90
60727;DHT22;46577;49.004;12.120;2023-03-14T15:13:30;10.90;99.90
60727;DHT22;46577;49.004;12.120;2023-03-14T15:15:55;10.90;99.90
60727;DHT22;46577;49.004;12.120;2023-03-14T15:18:25;10.70;99.90
60727;DHT22;46577;49.004;12.120;2023-03-14T15:20:53;10.70;99.90
60727;DHT22;46577;49.004;12.120;2023-03-14T15:23:20;10.70;99.90
60727;DHT22;46577;49.004;12.120;2023-03-14T15:25:46;10.80;99.90
60727;DHT22;46577;49.004;12.120;2023-03-14T15:28:24;10.70;99.90
60727;DHT22;46577;49.004;12.120;2023-03-14T15:30:54;10.50;99.90
60727;DHT22;46577;49.004;12.120;2023-03-14T15:33:21;10.50;99.90
60727;DHT22;46577;49.004;12.120;2023-03-14T15:35:47;10.50;99.90
60727;DHT22;46577;49.004;12.120;2023-03-14T15:38:17;10.40;99.90
60727;DHT22;46577;49.004;12.120;2023-03-14T15:40:44;10.30;99.90
60727;DHT22;46577;49.004;12.120;2023-03-14T15:43:10;10.10;99.90
60727;DHT22;46577;49.004;12.120;2023-03-14T15:45:36;9.80;99.90
60727;DHT22;46577;49.004;12.120;2023-03-14T15:48:02;9.70;99.90
60727;DHT22;46577;49.004;12.120;2023-03-14T15:50:28;9.60;99.90
60727;DHT22;46577;49.004;12.120;2023-03-14T15:52:54;9.50;99.90
60727;DHT22;46577;49.004;12.120;2023-03-14T15:55:21;9.20;99.90
60727;DHT22;46577;49.004;12.120;2023-03-14T15:57:46;9.00;99.90
60727;DHT22;46577;49.004;12.120;2023-03-14T16:00:14;9.20;99.90
60727;DHT22;46577;49.004;12.120;2023-03-14T16:02:41;9.20;99.90
60727;DHT22;46577;49.004;12.120;2023-03-14T16:05:11;9.20;99.90
60727;DHT22;46577;49.004;12.120;2023-03-14T16:07:38;9.10;99.90
60727;DHT22;46577;49.004;12.120;2023-03-14T16:10:05;9.00;99.90
60727;DHT22;46577;49.004;12.120;2023-03-14T16:12:31;9.00;99.90
60727;DHT22;46577;49.004;12.120;2023-03-14T16:14:57;9.00;99.90
60727;DHT22;46577;49.004;12.120;2023-03-14T16:17:23;8.90;99.90
60727;DHT22;46577;49.004;12.120;2023-03-14T16:19:49;9.10;99.90
60727;DHT22;46577;49.004;12.120;2023-03-14T16:22:14;9.20;99.90
60727;DHT22;46577;49.004;12.120;2023-03-14T16:24:40;9.20;99.90
60727;DHT22;46577;49.004;12.120;2023-03-14T16:27:06;9.20;99.90
60727;DHT22;46577;49.004;12.120;2023-03-14T16:29:31;9.00;99.90
60727;DHT22;46577;49.004;12.120;2023-03-14T16:31:57;8.70;99.90
60727;DHT22;46577;49.004;12.120;2023-03-14T16:34:23;8.70;99.90
60727;DHT22;46577;49.004;12.120;2023-03-14T16:36:49;8.60;99.90
60727;DHT22;46577;49.004;12.120;2023-03-14T16:39:18;8.40;99.90
60727;DHT22;46577;49.004;12.120;2023-03-14T16:41:44;8.30;99.90